Time;durP1;ratioP1;P1;durP2;ratioP2;P2;SDS_P1;SDS_P2;PMS_P1;PMS_P2;Temp;Humidity;BMP_temperature;BMP_pressure;BME280_temperature;BME280_humidity;BME280_pressure;Samples;Min_cycle;Max_cycle;Signal;HPM_P1;HPM_P2
2022/04/15 00:01:20;;;;;;;26.58;17.02;;;;;;;12.94;57.98;102395.84;5086652;28;20024;-61
2022/04/15 00:03:46;;;;;;;25.15;17.92;;;;;;;12.88;57.96;102393.97;5090142;28;20032;-61
2022/04/15 00:06:15;;;;;;;21.25;17.70;;;;;;;12.90;58.11;102394.63;5092078;28;20032;-61
2022/04/15 00:08:44;;;;;;;23.95;18.08;;;;;;;12.86;57.99;102396.16;5092297;28;20038;-61
2022/04/15 00:11:09;;;;;;;22.92;17.02;;;;;;;12.88;57.71;102393.13;5090484;28;20032;-62
2022/04/15 00:13:35;;;;;;;23.30;17.15;;;;;;;12.81;58.23;102390.44;5088719;28;20089;-61
2022/04/15 00:16:02;;;;;;;23.27;17.90;;;;;;;12.77;58.21;102386.38;5090272;28;20055;-61
2022/04/15 00:18:28;;;;;;;23.63;17.20;;;;;;;12.75;58.07;102383.00;5090561;28;20053;-61
2022/04/15 00:20:54;;;;;;;21.15;16.67;;;;;;;12.75;58.15;102383.00;5089790;28;20040;-61
2022/04/15 00:23:22;;;;;;;23.33;16.98;;;;;;;12.66;57.92;102385.22;5092718;28;20024;-63
2022/04/15 00:25:48;;;;;;;23.13;18.17;;;;;;;12.67;58.16;102381.34;5091867;28;20032;-61
2022/04/15 00:28:13;;;;;;;23.80;16.75;;;;;;;12.62;58.13;102391.50;5091775;28;20020;-61
2022/04/15 00:30:38;;;;;;;21.48;17.35;;;;;;;12.59;57.91;102395.59;5092467;28;20017;-61
2022/04/15 00:33:04;;;;;;;20.58;16.15;;;;;;;12.62;58.05;102392.34;5092136;28;20036;-61
2022/04/15 00:35:29;;;;;;;20.13;16.17;;;;;;;12.52;58.01;102401.19;5092508;28;20519;-61
2022/04/15 00:37:55;;;;;;;24.20;16.88;;;;;;;12.50;58.16;102402.53;5091791;28;20036;-61
2022/04/15 00:40:20;;;;;;;19.55;16.20;;;;;;;12.49;58.21;102403.59;5091846;28;20352;-61
2022/04/15 00:42:45;;;;;;;22.25;17.33;;;;;;;12.45;58.34;102405.13;5092067;28;20042;-61
2022/04/15 00:45:11;;;;;;;24.92;17.65;;;;;;;12.45;58.29;102402.34;5092101;28;20074;-61
2022/04/15 00:47:51;;;;;;;28.88;17.30;;;;;;;12.45;58.25;102410.69;5091277;28;20040;-61
2022/04/15 00:50:21;;;;;;;24.58;17.92;;;;;;;12.34;58.45;102415.09;5092313;28;20483;-61
2022/04/15 00:52:49;;;;;;;23.60;17.42;;;;;;;12.36;58.77;102415.72;5092376;28;20040;-61
2022/04/15 00:55:16;;;;;;;24.85;17.90;;;;;;;12.35;58.71;102414.00;5091511;28;20081;-61
2022/04/15 00:57:43;;;;;;;26.80;19.25;;;;;;;12.25;58.75;102410.88;5091340;28;20019;-62
2022/04/15 01:00:12;;;;;;;25.85;19.30;;;;;;;12.20;58.81;102413.47;5092295;28;20032;-61
2022/04/15 01:02:38;;;;;;;24.40;18.67;;;;;;;12.21;58.41;102413.25;5090863;28;20032;-61
2022/04/15 01:05:07;;;;;;;27.17;18.65;;;;;;;12.21;58.53;102415.19;5092550;28;20035;-61
2022/04/15 01:07:40;;;;;;;28.50;18.00;;;;;;;12.14;58.53;102411.59;5091911;28;20115;-61
2022/04/15 01:10:11;;;;;;;26.77;18.38;;;;;;;12.11;58.69;102414.84;5090863;28;20467;-61
2022/04/15 01:12:46;;;;;;;28.17;18.77;;;;;;;12.06;58.68;102411.88;5091664;28;20035;-61
2022/04/15 01:15:13;;;;;;;27.98;19.98;;;;;;;12.00;58.97;102414.47;5071448;28;20020;-62
2022/04/15 01:17:39;;;;;;;27.80;18.83;;;;;;;12.01;59.05;102424.53;5083533;28;20109;-61
2022/04/15 01:20:07;;;;;;;26.17;18.33;;;;;;;12.02;59.08;102417.91;5092239;28;20036;-61
2022/04/15 01:22:38;;;;;;;29.55;18.80;;;;;;;12.03;58.63;102418.75;5090905;28;20028;-61
2022/04/15 01:25:05;;;;;;;26.60;18.77;;;;;;;12.06;58.73;102423.84;5091111;28;20020;-61
2022/04/15 01:27:37;;;;;;;26.17;19.15;;;;;;;11.98;59.13;102426.91;5090465;28;20027;-61
2022/04/15 01:30:14;;;;;;;22.48;18.30;;;;;;;12.00;59.28;102433.13;5091178;28;20055;-61
2022/04/15 01:32:40;;;;;;;22.23;18.80;;;;;;;11.91;58.79;102424.19;5091725;28;20024;-61
2022/04/15 01:35:07;;;;;;;24.13;18.55;;;;;;;11.89;59.19;102426.31;5091802;28;20533;-61
2022/04/15 01:37:34;;;;;;;26.63;19.20;;;;;;;11.82;59.10;102427.41;5087860;28;20020;-60
2022/04/15 01:40:00;;;;;;;23.77;19.42;;;;;;;11.83;59.22;102429.09;5091737;28;20051;-60
2022/04/15 01:42:25;;;;;;;25.50;18.70;;;;;;;11.78;59.14;102430.63;5091269;28;20481;-60
2022/04/15 01:44:51;;;;;;;26.48;19.67;;;;;;;11.75;59.29;102433.00;5090842;28;20028;-61
2022/04/15 01:47:17;;;;;;;26.45;19.33;;;;;;;11.74;58.97;102429.38;5091154;28;20047;-60
2022/04/15 01:49:43;;;;;;;24.80;19.65;;;;;;;11.70;59.26;102432.81;5091090;28;20016;-60
2022/04/15 01:52:08;;;;;;;26.88;19.13;;;;;;;11.63;59.28;102429.22;5090339;28;20032;-60
2022/04/15 01:54:34;;;;;;;25.90;19.35;;;;;;;11.70;59.43;102436.44;5090944;28;20044;-60
2022/04/15 01:56:59;;;;;;;29.05;19.27;;;;;;;11.62;59.32;102435.84;5091025;28;20040;-60
2022/04/15 01:59:25;;;;;;;25.27;19.25;;;;;;;11.61;59.03;102440.56;5090087;28;20127;-60
2022/04/15 02:01:54;;;;;;;24.50;19.00;;;;;;;11.58;58.94;102437.38;5091450;28;20398;-60
2022/04/15 02:04:20;;;;;;;25.45;18.50;;;;;;;11.52;59.32;102436.34;5090173;28;20088;-61
2022/04/15 02:06:45;;;;;;;22.55;18.35;;;;;;;11.48;59.36;102438.72;5091251;28;20057;-61
2022/04/15 02:09:11;;;;;;;27.10;18.27;;;;;;;11.48;59.44;102441.50;5090996;28;20107;-61
2022/04/15 02:11:36;;;;;;;24.02;18.90;;;;;;;11.49;59.13;102442.34;5090922;28;20020;-61
2022/04/15 02:14:01;;;;;;;22.55;17.80;;;;;;;11.40;59.23;102452.88;5090366;28;20024;-61
2022/04/15 02:16:29;;;;;;;23.48;18.88;;;;;;;11.42;59.32;102447.91;5091042;28;20038;-61
2022/04/15 02:18:54;;;;;;;25.05;18.50;;;;;;;11.37;59.36;102447.75;5076762;28;20048;-61
2022/04/15 02:21:20;;;;;;;24.02;18.38;;;;;;;11.38;59.50;102455.00;5090601;28;20116;-61
2022/04/15 02:23:45;;;;;;;21.48;17.52;;;;;;;11.38;59.34;102460.56;5091156;28;20031;-60
2022/04/15 02:26:13;;;;;;;24.38;18.25;;;;;;;11.35;59.30;102458.22;5090651;28;20064;-60
2022/04/15 02:28:38;;;;;;;26.20;18.17;;;;;;;11.28;59.60;102454.63;5090603;28;20098;-61
2022/04/15 02:31:03;;;;;;;23.73;18.27;;;;;;;11.25;59.70;102463.41;5090962;28;20028;-61
2022/04/15 02:33:29;;;;;;;26.65;17.52;;;;;;;11.28;59.53;102465.75;5090211;28;20024;-61
2022/04/15 02:35:55;;;;;;;25.23;17.90;;;;;;;11.27;58.90;102462.09;5091133;28;20054;-61
2022/04/15 02:38:23;;;;;;;22.80;17.25;;;;;;;11.23;59.43;102457.19;5091565;28;20036;-61
2022/04/15 02:40:48;;;;;;;22.20;17.80;;;;;;;11.25;59.18;102467.03;5094125;28;20095;-61
2022/04/15 02:43:14;;;;;;;24.25;17.60;;;;;;;11.25;59.15;102467.03;5094669;28;20435;-61
2022/04/15 02:45:39;;;;;;;22.20;17.50;;;;;;;11.19;59.19;102462.31;5093990;28;20098;-61
2022/04/15 02:48:05;;;;;;;24.15;18.05;;;;;;;11.18;59.01;102463.41;5093296;28;20032;-61
2022/04/15 02:50:30;;;;;;;26.42;16.80;;;;;;;11.18;59.29;102459.78;5094524;28;20031;-61
2022/04/15 02:52:58;;;;;;;24.98;17.65;;;;;;;11.18;59.37;102465.34;5094385;28;20036;-61
2022/04/15 02:55:24;;;;;;;26.13;18.30;;;;;;;11.11;59.51;102461.72;5093829;28;20028;-61
2022/04/15 02:57:49;;;;;;;25.92;18.00;;;;;;;11.09;59.52;102461.09;5093569;28;20093;-61
2022/04/15 03:00:15;;;;;;;23.85;17.55;;;;;;;11.07;59.61;102462.13;5093301;28;20073;-61
2022/04/15 03:02:40;;;;;;;27.92;18.20;;;;;;;11.07;59.54;102464.91;5093237;28;20039;-61
2022/04/15 03:05:09;;;;;;;22.17;17.25;;;;;;;11.04;59.57;102467.28;5094288;28;20126;-61
2022/04/15 03:07:34;;;;;;;24.27;17.58;;;;;;;11.01;59.48;102463.03;5093020;28;20028;-60
2022/04/15 03:10:00;;;;;;;23.67;18.23;;;;;;;10.93;59.77;102457.69;5093848;28;20039;-61
2022/04/15 03:12:25;;;;;;;24.67;18.20;;;;;;;10.90;59.62;102463.69;5093384;28;20042;-61
2022/04/15 03:14:51;;;;;;;24.10;18.40;;;;;;;10.86;59.85;102462.41;5093300;28;20047;-61
2022/04/15 03:17:16;;;;;;;25.70;18.73;;;;;;;10.81;59.97;102467.75;5093091;28;20087;-61
2022/04/15 03:19:42;;;;;;;25.15;18.50;;;;;;;10.77;60.15;102464.56;5093892;28;20032;-61
2022/04/15 03:22:07;;;;;;;23.52;17.70;;;;;;;10.78;60.14;102463.47;5092741;28;20025;-60
2022/04/15 03:24:32;;;;;;;22.88;17.25;;;;;;;10.77;60.12;102469.25;5093450;28;20113;-61
2022/04/15 03:26:57;;;;;;;25.50;18.00;;;;;;;10.72;60.06;102469.03;5093639;28;20365;-61
2022/04/15 03:29:23;;;;;;;23.38;17.77;;;;;;;10.71;60.54;102467.34;5092248;28;20059;-61
2022/04/15 03:31:49;;;;;;;25.15;18.13;;;;;;;10.63;60.67;102468.41;5093185;28;20040;-61
2022/04/15 03:34:17;;;;;;;24.98;18.33;;;;;;;10.57;60.72;102464.56;5093817;28;20034;-61
2022/04/15 03:36:42;;;;;;;22.65;17.67;;;;;;;10.65;60.56;102471.84;5092099;28;20067;-61
2022/04/15 03:39:07;;;;;;;25.73;18.35;;;;;;;10.56;60.47;102468.41;5076266;28;20446;-61
2022/04/15 03:41:33;;;;;;;25.17;18.15;;;;;;;10.56;60.33;102473.09;5088029;28;20027;-61
2022/04/15 03:43:59;;;;;;;23.60;18.05;;;;;;;10.56;60.20;102473.94;5091555;28;20382;-61
2022/04/15 03:46:25;;;;;;;26.00;18.02;;;;;;;10.60;60.38;102476.31;5090428;28;20032;-60
2022/04/15 03:48:53;;;;;;;27.27;18.20;;;;;;;10.61;60.04;102478.00;5092616;28;20086;-60
2022/04/15 03:51:18;;;;;;;22.30;17.73;;;;;;;10.60;60.22;102485.47;5092121;28;20060;-60
2022/04/15 03:53:46;;;;;;;21.42;17.38;;;;;;;10.61;60.21;102489.09;5091684;28;20058;-61
2022/04/15 03:56:14;;;;;;;22.67;17.33;;;;;;;10.60;60.44;102490.19;5093574;28;20047;-61
2022/04/15 03:58:40;;;;;;;27.27;17.88;;;;;;;10.52;60.71;102489.31;5091953;28;20074;-61
2022/04/15 04:01:05;;;;;;;26.98;18.48;;;;;;;10.61;60.98;102494.66;5092467;28;20507;-61
2022/04/15 04:03:30;;;;;;;26.42;18.38;;;;;;;10.62;61.04;102501.94;5092592;28;20089;-61
2022/04/15 04:05:56;;;;;;;26.83;19.35;;;;;;;10.62;61.72;102488.06;5091207;28;20032;-62
2022/04/15 04:08:21;;;;;;;29.25;21.77;;;;;;;10.59;62.72;102499.59;5093061;28;20431;-61
2022/04/15 04:10:46;;;;;;;33.08;23.33;;;;;;;10.66;63.16;102500.44;5093451;28;20323;-61
2022/04/15 04:13:11;;;;;;;35.90;23.95;;;;;;;10.68;63.33;102496.38;5091478;28;20059;-62
2022/04/15 04:15:37;;;;;;;39.10;23.92;;;;;;;10.69;63.42;102500.00;5092521;28;20034;-61
2022/04/15 04:18:05;;;;;;;39.03;25.10;;;;;;;10.68;64.60;102495.53;5092342;28;20036;-61
2022/04/15 04:20:30;;;;;;;32.33;22.75;;;;;;;10.78;64.86;102498.75;5092249;28;20067;-61
2022/04/15 04:22:59;;;;;;;30.27;22.27;;;;;;;10.78;65.46;102502.38;5092276;28;20040;-61
2022/04/15 04:25:24;;;;;;;31.23;23.13;;;;;;;10.81;65.49;102501.94;5092120;28;20028;-61
2022/04/15 04:27:50;;;;;;;29.30;21.85;;;;;;;10.86;65.71;102506.00;5092162;28;20093;-61
2022/04/15 04:30:16;;;;;;;26.75;21.08;;;;;;;10.84;65.98;102510.91;5092010;28;20102;-61
2022/04/15 04:32:50;;;;;;;25.75;21.50;;;;;;;10.93;65.45;102510.47;5091703;28;20032;-61
2022/04/15 04:35:20;;;;;;;25.73;20.35;;;;;;;11.03;65.67;102519.22;5092410;28;20368;-61
2022/04/15 04:37:46;;;;;;;25.05;20.92;;;;;;;10.97;65.67;102508.97;5090229;28;20066;-62
2022/04/15 04:40:12;;;;;;;27.50;21.33;;;;;;;10.98;65.78;102524.56;5091436;28;20028;-61
2022/04/15 04:42:38;;;;;;;24.70;19.60;;;;;;;10.98;65.81;102521.78;5092356;28;20032;-61
2022/04/15 04:45:04;;;;;;;25.45;20.17;;;;;;;11.00;65.79;102530.78;5092116;28;20024;-61
2022/04/15 04:47:30;;;;;;;22.08;19.70;;;;;;;11.03;65.73;102535.03;5091327;28;20521;-61
2022/04/15 04:49:55;;;;;;;20.23;18.05;;;;;;;11.03;65.84;102535.88;5091995;28;20031;-61
2022/04/15 04:52:24;;;;;;;20.92;18.40;;;;;;;11.01;65.55;102543.59;5092142;28;20020;-61
2022/04/15 04:54:56;;;;;;;19.75;17.65;;;;;;;11.00;65.51;102538.25;5091473;28;20039;-61
2022/04/15 04:57:21;;;;;;;18.63;16.23;;;;;;;11.01;65.21;102532.50;5091615;28;20111;-61
2022/04/15 04:59:46;;;;;;;17.58;15.13;;;;;;;11.01;65.18;102543.59;5091586;28;20140;-61
2022/04/15 05:02:12;;;;;;;18.30;15.43;;;;;;;11.03;65.04;102549.78;5090281;28;20046;-61
2022/04/15 05:04:38;;;;;;;16.33;14.63;;;;;;;10.99;65.17;102556.84;5092356;28;20028;-61
2022/04/15 05:07:03;;;;;;;16.20;14.57;;;;;;;10.91;65.47;102557.06;5091485;28;20313;-61
2022/04/15 05:09:29;;;;;;;15.52;13.93;;;;;;;10.90;65.52;102562.84;5090860;28;20024;-61
2022/04/15 05:11:55;;;;;;;16.08;14.38;;;;;;;10.88;65.59;102562.19;5091416;28;20116;-62
2022/04/15 05:14:20;;;;;;;16.70;14.80;;;;;;;10.88;65.92;102565.81;5090325;28;20036;-61
2022/04/15 05:16:45;;;;;;;16.15;14.30;;;;;;;10.90;65.80;102562.84;5090396;28;20441;-61
2022/04/15 05:19:11;;;;;;;17.60;15.43;;;;;;;10.93;65.77;102568.81;5091796;28;20024;-61
2022/04/15 05:21:36;;;;;;;17.05;14.82;;;;;;;10.82;66.08;102575.88;5090375;28;20500;-61
2022/04/15 05:24:02;;;;;;;17.35;15.18;;;;;;;10.88;65.96;102574.16;5090743;28;20028;-60
2022/04/15 05:26:29;;;;;;;17.92;15.90;;;;;;;10.90;65.77;102585.06;5090455;28;20047;-61
2022/04/15 05:28:54;;;;;;;17.95;16.05;;;;;;;10.81;66.33;102589.97;5089947;28;20479;-61
2022/04/15 05:31:22;;;;;;;20.95;16.25;;;;;;;10.92;65.66;102591.25;5089510;28;20028;-60
2022/04/15 05:33:47;;;;;;;23.77;17.40;;;;;;;10.89;66.34;102589.78;5090449;28;20123;-60
2022/04/15 05:36:13;;;;;;;22.00;16.20;;;;;;;10.96;66.24;102589.75;5082147;28;20110;-60
2022/04/15 05:38:38;;;;;;;22.13;16.55;;;;;;;10.86;66.41;102595.75;5086750;28;20073;-60
2022/04/15 05:41:06;;;;;;;20.02;16.30;;;;;;;10.86;66.67;102606.00;5089959;28;20471;-60
2022/04/15 05:43:31;;;;;;;19.90;16.50;;;;;;;10.81;66.66;102598.31;5088322;28;20040;-61
2022/04/15 05:45:57;;;;;;;20.20;16.10;;;;;;;10.86;66.77;102612.41;5089289;28;20036;-60
2022/04/15 05:48:22;;;;;;;21.40;15.98;;;;;;;10.88;66.78;102612.19;5089360;28;20032;-60
2022/04/15 05:50:47;;;;;;;18.90;16.15;;;;;;;10.84;66.68;102617.31;5087374;28;20024;-60
2022/04/15 05:53:15;;;;;;;18.67;15.68;;;;;;;10.86;66.69;102620.75;5086823;28;20024;-60
2022/04/15 05:55:41;;;;;;;19.00;15.80;;;;;;;10.86;66.84;102620.75;5082275;28;20745;-61
2022/04/15 05:58:08;;;;;;;22.02;16.55;;;;;;;10.84;66.80;102625.63;5086976;28;20134;-61
2022/04/15 06:00:34;;;;;;;22.00;17.73;;;;;;;10.85;66.82;102621.81;5085523;28;20116;-61
2022/04/15 06:02:59;;;;;;;22.77;17.33;;;;;;;10.84;67.30;102635.91;5089992;28;20479;-60
2022/04/15 06:05:25;;;;;;;22.77;17.75;;;;;;;10.88;67.20;102640.81;5088754;28;20383;-61
2022/04/15 06:07:52;;;;;;;22.00;17.25;;;;;;;10.87;67.34;102639.13;5088650;28;20074;-60
2022/04/15 06:10:17;;;;;;;24.67;18.13;;;;;;;10.89;67.32;102648.09;5087206;28;20284;-61
2022/04/15 06:13:06;;;;;;;23.20;18.38;;;;;;;10.91;67.33;102647.88;5089411;28;20058;-62
2022/04/15 06:15:31;;;;;;;21.73;18.17;;;;;;;10.91;67.25;102645.09;5092755;28;20040;-60
2022/04/15 06:18:00;;;;;;;24.63;18.33;;;;;;;10.95;67.32;102655.56;5085852;28;20085;-61
2022/04/15 06:20:32;;;;;;;23.92;18.65;;;;;;;10.98;67.15;102657.09;5084835;28;20028;-60
2022/04/15 06:22:57;;;;;;;26.83;18.98;;;;;;;10.98;67.01;102649.59;5090104;28;20089;-61
2022/04/15 06:25:23;;;;;;;25.42;19.75;;;;;;;10.99;67.12;102662.41;5081089;28;20459;-60
2022/04/15 06:27:58;;;;;;;24.50;18.58;;;;;;;10.96;67.25;102651.72;5090089;28;20470;-60
2022/04/15 06:30:24;;;;;;;23.88;19.48;;;;;;;10.93;67.38;102651.31;5092395;28;20028;-61
2022/04/15 06:32:51;;;;;;;25.95;18.92;;;;;;;10.93;67.42;102657.72;5087316;28;20455;-61
2022/04/15 06:35:17;;;;;;;24.95;19.17;;;;;;;10.90;67.52;102660.06;5086077;28;20066;-60
2022/04/15 06:37:42;;;;;;;22.52;17.73;;;;;;;10.91;67.51;102670.09;5083459;28;20038;-60
2022/04/15 06:40:08;;;;;;;24.48;18.52;;;;;;;10.91;67.76;102670.97;5088853;28;20475;-59
2022/04/15 06:42:34;;;;;;;24.35;17.83;;;;;;;10.92;67.69;102672.66;5084678;28;20375;-60
2022/04/15 06:45:00;;;;;;;22.02;17.70;;;;;;;10.85;67.74;102666.25;5088502;28;20036;-60
2022/04/15 06:47:25;;;;;;;22.85;17.58;;;;;;;10.90;67.44;102674.81;5079548;28;20030;-60
2022/04/15 06:49:51;;;;;;;21.05;17.52;;;;;;;10.90;67.46;102669.25;5078576;28;20028;-60
2022/04/15 06:52:17;;;;;;;22.25;17.45;;;;;;;10.92;67.56;102678.22;5091984;28;20169;-60
2022/04/15 06:54:43;;;;;;;26.33;18.88;;;;;;;10.89;67.91;102683.38;5079970;28;20494;-60
2022/04/15 06:57:09;;;;;;;23.17;18.05;;;;;;;10.90;67.44;102685.94;5092972;28;20035;-61
2022/04/15 06:59:35;;;;;;;21.13;17.73;;;;;;;10.92;67.51;102686.56;5093217;28;20051;-61
2022/04/15 07:02:01;;;;;;;20.50;16.80;;;;;;;10.92;67.75;102683.78;5092063;28;20036;-61
2022/04/15 07:04:27;;;;;;;24.02;17.65;;;;;;;10.94;67.86;102680.81;5092411;28;20097;-60
2022/04/15 07:06:53;;;;;;;22.77;17.35;;;;;;;10.93;67.74;102682.72;5081477;28;20101;-61
2022/04/15 07:09:18;;;;;;;22.02;17.58;;;;;;;10.99;67.52;102683.81;5087504;28;20024;-60
2022/04/15 07:11:46;;;;;;;23.48;16.73;;;;;;;10.96;67.49;102684.22;5083290;28;20043;-61
2022/04/15 07:14:11;;;;;;;15.57;10.77;;;;;;;11.25;69.47;102688.53;5090453;28;20107;-61
2022/04/15 07:16:39;;;;;;;23.55;17.90;;;;;;;11.12;67.76;102688.50;5091827;28;20582;-60
2022/04/15 07:19:07;;;;;;;21.35;17.13;;;;;;;11.16;67.59;102689.81;5090076;28;20062;-61
2022/04/15 07:21:32;;;;;;;24.02;17.88;;;;;;;11.16;67.41;102695.34;5090086;28;20020;-61
2022/04/15 07:23:58;;;;;;;21.90;17.30;;;;;;;11.17;67.20;102697.94;5091786;28;20371;-61
2022/04/15 07:26:23;;;;;;;20.88;17.10;;;;;;;11.09;67.41;102698.16;5092593;28;20089;-60
2022/04/15 07:28:48;;;;;;;21.42;17.48;;;;;;;11.13;67.61;102691.09;5094641;28;20036;-60
2022/04/15 07:31:14;;;;;;;20.08;15.57;;;;;;;11.08;67.42;102707.53;5090337;28;20028;-61
2022/04/15 07:33:39;;;;;;;19.85;15.75;;;;;;;11.10;67.81;102707.34;5092184;28;20035;-61
2022/04/15 07:38:51;;;;;;;22.00;16.30;;;;;;;11.09;67.60;102709.25;5093082;28;20494;-61
2022/04/15 07:41:23;;;;;;;21.90;16.50;;;;;;;11.14;67.76;102715.03;5092249;28;20032;-61
2022/04/15 07:43:48;;;;;;;19.77;16.77;;;;;;;11.10;67.93;102708.19;5091368;28;20031;-61
2022/04/15 07:46:14;;;;;;;25.13;17.88;;;;;;;11.13;67.43;102712.47;5092695;28;20036;-61
2022/04/15 07:48:42;;;;;;;20.60;16.75;;;;;;;11.10;67.76;102707.34;5093149;28;20383;-61
2022/04/15 07:51:09;;;;;;;26.48;15.90;;;;;;;11.11;67.30;102712.66;5091747;28;20028;-61
2022/04/15 07:53:34;;;;;;;24.35;17.48;;;;;;;11.10;67.90;102712.91;5093138;28;20024;-61
2022/04/15 07:55:59;;;;;;;20.60;16.52;;;;;;;11.16;67.58;102712.91;5091939;28;20027;-61
2022/04/15 07:58:25;;;;;;;21.30;17.25;;;;;;;11.20;67.43;102721.66;5092160;28;20395;-60
2022/04/15 08:00:50;;;;;;;27.05;17.52;;;;;;;11.20;67.77;102716.09;5092092;28;20526;-61
2022/04/15 08:03:20;;;;;;;25.60;17.67;;;;;;;11.19;67.82;102719.94;5090864;28;20036;-61
2022/04/15 08:05:45;;;;;;;24.50;18.10;;;;;;;11.18;67.87;102715.47;5071915;28;20533;-62
2022/04/15 08:08:11;;;;;;;25.73;17.15;;;;;;;11.20;67.51;102716.09;5079776;28;20032;-61
2022/04/15 08:10:36;;;;;;;23.13;17.70;;;;;;;11.15;67.75;102713.09;5085175;28;20031;-62
2022/04/15 08:13:04;;;;;;;21.88;16.92;;;;;;;11.20;67.21;102710.53;5091278;28;20031;-61
2022/04/15 08:15:30;;;;;;;20.70;15.55;;;;;;;11.22;67.56;102711.19;5092015;28;20027;-61
2022/04/15 08:17:56;;;;;;;22.65;15.88;;;;;;;11.16;67.92;102715.69;5090843;28;20048;-61
2022/04/15 08:20:21;;;;;;;22.40;15.45;;;;;;;11.25;67.27;102719.13;5092097;28;20020;-63
2022/04/15 08:22:46;;;;;;;21.33;15.35;;;;;;;11.20;66.88;102718.88;5090636;28;20394;-61
2022/04/15 08:25:12;;;;;;;18.83;14.95;;;;;;;11.16;67.11;102714.81;5088495;28;20024;-61
2022/04/15 08:27:38;;;;;;;19.75;15.10;;;;;;;11.19;66.47;102719.94;5087820;28;20114;-61
2022/04/15 08:30:04;;;;;;;16.73;13.00;;;;;;;11.21;66.54;102720.63;5077418;28;20464;-61
2022/04/15 08:32:33;;;;;;;18.27;13.73;;;;;;;11.17;66.26;102717.41;5091541;28;20119;-61
2022/04/15 08:35:02;;;;;;;18.80;13.27;;;;;;;11.23;66.41;102722.09;5092613;28;20024;-62
2022/04/15 08:37:28;;;;;;;15.20;11.57;;;;;;;11.30;65.41;102730.44;5082494;28;20107;-63
2022/04/15 08:39:53;;;;;;;13.45;10.88;;;;;;;11.42;64.91;102728.75;5082793;28;20120;-62
2022/04/15 08:42:20;;;;;;;11.98;10.15;;;;;;;11.43;64.27;102730.44;5074104;28;20407;-62
2022/04/15 08:44:56;;;;;;;11.38;9.82;;;;;;;11.46;64.04;102735.59;5083754;28;20889;-61
2022/04/15 08:47:21;;;;;;;13.52;10.85;;;;;;;11.47;63.83;102728.94;5084402;28;20071;-65
2022/04/15 08:49:48;;;;;;;15.68;11.25;;;;;;;11.48;64.30;102733.47;5089461;28;20068;-62
2022/04/15 08:52:17;;;;;;;14.70;10.93;;;;;;;11.57;64.23;102738.81;5088367;28;20023;-62
2022/04/15 08:54:44;;;;;;;15.20;10.90;;;;;;;11.67;63.81;102742.00;5082110;28;20479;-62
2022/04/15 08:57:10;;;;;;;12.93;10.40;;;;;;;11.70;63.57;102748.00;5089950;28;20039;-61
2022/04/15 08:59:35;;;;;;;12.80;10.95;;;;;;;11.75;63.05;102745.44;5089548;28;20044;-61
2022/04/15 09:02:01;;;;;;;14.02;11.00;;;;;;;11.75;63.54;102736.22;5089252;28;20050;-61
2022/04/15 09:04:26;;;;;;;12.80;10.00;;;;;;;11.78;62.93;102741.38;5070679;28;20033;-61
2022/04/15 09:07:02;;;;;;;13.50;10.50;;;;;;;11.84;62.82;102745.25;5080179;28;20138;-62
2022/04/15 09:09:29;;;;;;;16.13;10.02;;;;;;;11.91;62.88;102755.31;5090564;28;20043;-62
2022/04/15 09:11:58;;;;;;;14.32;9.93;;;;;;;11.97;62.16;102746.09;5090889;28;20022;-61
2022/04/15 09:14:25;;;;;;;11.20;9.80;;;;;;;11.97;61.02;102759.16;5089421;28;20495;-62
2022/04/15 09:16:50;;;;;;;9.95;8.95;;;;;;;12.00;61.47;102758.72;5089147;28;20082;-61
2022/04/15 09:19:20;;;;;;;11.38;10.15;;;;;;;12.03;61.58;102750.81;5071610;28;20025;-61
2022/04/15 09:21:55;;;;;;;14.77;10.23;;;;;;;12.08;61.39;102760.44;5082607;28;20085;-61
2022/04/15 09:24:27;;;;;;;12.60;9.63;;;;;;;12.11;61.25;102755.28;5090080;28;20035;-61
2022/04/15 09:26:53;;;;;;;14.45;9.88;;;;;;;12.17;61.02;102756.34;5090472;28;20043;-61
2022/04/15 09:29:21;;;;;;;11.43;10.30;;;;;;;12.19;61.28;102756.97;5077951;28;20090;-61
2022/04/15 09:31:47;;;;;;;11.38;10.05;;;;;;;12.23;61.32;102756.31;5074218;28;20016;-60
2022/04/15 09:34:12;;;;;;;11.77;9.73;;;;;;;12.24;61.15;102754.38;5070260;28;20604;-60
2022/04/15 09:36:39;;;;;;;11.38;9.82;;;;;;;12.35;61.00;102761.22;5070956;28;20028;-60
2022/04/15 09:39:10;;;;;;;11.45;9.40;;;;;;;12.41;60.24;102761.19;5087752;28;20051;-60
2022/04/15 09:41:37;;;;;;;14.45;9.50;;;;;;;12.44;60.73;102763.53;5086647;28;20470;-60
2022/04/15 09:44:02;;;;;;;12.15;10.10;;;;;;;12.49;60.22;102763.72;5091027;28;20424;-59
2022/04/15 09:46:29;;;;;;;12.57;10.57;;;;;;;12.49;60.63;102768.44;5091406;28;20028;-59
2022/04/15 09:49:03;;;;;;;13.68;9.95;;;;;;;12.52;60.30;102766.06;5091982;28;20042;-60
2022/04/15 09:51:37;;;;;;;11.93;9.77;;;;;;;12.59;59.80;102768.84;5092138;28;20051;-60
2022/04/15 09:54:04;;;;;;;10.70;9.23;;;;;;;12.64;59.35;102763.47;5089208;28;20056;-60
2022/04/15 09:56:39;;;;;;;11.02;8.93;;;;;;;12.70;59.84;102762.59;5092847;28;20039;-60
2022/04/15 09:59:12;;;;;;;12.88;10.57;;;;;;;12.72;59.31;102751.22;5093928;28;20058;-60
2022/04/15 10:01:43;;;;;;;9.43;6.40;;;;;;;12.97;65.56;102763.31;5093894;28;20074;-60
2022/04/15 10:04:10;;;;;;;9.52;8.23;;;;;;;12.90;59.46;102758.88;5093280;28;20550;-61
2022/04/15 10:06:37;;;;;;;9.15;7.88;;;;;;;12.99;59.26;102766.72;5095693;28;20077;-62
2022/04/15 10:09:04;;;;;;;8.93;8.05;;;;;;;13.02;58.21;102766.28;5095178;28;20114;-61
2022/04/15 10:11:32;;;;;;;10.32;9.15;;;;;;;13.14;57.09;102763.66;5093353;28;20040;-61
2022/04/15 10:13:58;;;;;;;9.25;8.32;;;;;;;13.36;57.05;102757.75;5092299;28;20033;-60
2022/04/15 10:16:23;;;;;;;8.35;6.88;;;;;;;13.38;55.84;102762.03;5080953;28;20027;-61
2022/04/15 10:18:50;;;;;;;11.38;8.27;;;;;;;13.34;56.35;102763.56;5093257;28;20036;-61
2022/04/15 10:21:16;;;;;;;8.50;7.47;;;;;;;13.37;56.60;102760.31;5090736;28;20028;-61
2022/04/15 10:23:42;;;;;;;11.85;7.78;;;;;;;13.48;56.53;102751.22;5081854;28;20035;-61
2022/04/15 10:26:07;;;;;;;10.18;9.07;;;;;;;13.58;55.87;102750.72;5092381;28;20032;-61
2022/04/15 10:28:42;;;;;;;10.38;8.90;;;;;;;13.71;56.06;102755.31;5084236;28;20043;-61
2022/04/15 10:31:13;;;;;;;14.82;9.68;;;;;;;13.72;56.07;102751.47;5091699;28;20098;-61
2022/04/15 10:33:40;;;;;;;5.43;5.00;;;;;;;14.18;58.82;102752.94;5090906;28;20482;-61
2022/04/15 10:36:11;;;;;;;10.23;6.35;;;;;;;14.42;57.51;102752.03;5091657;28;20032;-60
2022/04/15 10:38:37;;;;;;;8.53;4.97;;;;;;;14.71;56.54;102749.56;5083559;28;20081;-61
2022/04/15 10:41:15;;;;;;;8.32;7.13;;;;;;;14.78;55.42;102750.34;5090011;28;20683;-62
2022/04/15 10:43:56;;;;;;;11.57;8.15;;;;;;;14.83;54.82;102744.88;5087221;28;20112;-62
2022/04/15 10:46:29;;;;;;;6.90;6.25;;;;;;;15.03;54.15;102739.00;5092033;28;20021;-62
2022/04/15 10:48:57;;;;;;;10.15;7.68;;;;;;;15.11;52.00;102746.22;5090709;28;20077;-62
2022/04/15 10:51:25;;;;;;;9.30;6.65;;;;;;;15.17;52.04;102750.88;5090564;28;20016;-62
2022/04/15 10:53:51;;;;;;;7.10;5.97;;;;;;;15.28;52.77;102743.59;5090473;28;21472;-61
2022/04/15 10:56:18;;;;;;;5.60;4.63;;;;;;;15.59;52.18;102734.06;5087304;28;20070;-61
2022/04/15 11:02:02;;;;;;;7.13;3.88;;;;;;;15.59;51.32;102734.91;5058663;28;20384;-62
2022/04/15 11:04:35;;;;;;;6.85;4.60;;;;;;;15.59;51.74;102734.06;5092491;28;20115;-62
2022/04/15 11:07:30;;;;;;;8.00;5.30;;;;;;;15.61;51.86;102731.88;5088845;28;20032;-61
2022/04/15 11:09:57;;;;;;;7.30;6.60;;;;;;;15.57;50.28;102736.25;5092783;28;20479;-61
2022/04/15 11:12:48;;;;;;;6.03;5.43;;;;;;;15.79;52.07;102737.38;5089917;28;20495;-61
2022/04/15 11:15:15;;;;;;;7.22;4.70;;;;;;;15.95;50.44;102724.59;5091040;28;20126;-61
2022/04/15 11:17:47;;;;;;;5.07;4.40;;;;;;;16.08;50.69;102729.13;5093767;28;20036;-61